sensor_id;sensor_type;location;lat;lon;timestamp;noise_LAeq;noise_LA_min;noise_LA_max;noise_LA01;noise_LA95
77361;Laerm;66427;51.798;10.954;2023-11-22T00:00:43;48.11;28.28;64.53;;
77361;Laerm;66427;51.798;10.954;2023-11-22T00:03:09;32.59;28.33;43.06;;
77361;Laerm;66427;51.798;10.954;2023-11-22T00:05:34;37.99;31.26;48.83;;
77361;Laerm;66427;51.798;10.954;2023-11-22T00:07:59;40.14;34.00;52.47;;
77361;Laerm;66427;51.798;10.954;2023-11-22T00:10:25;38.69;33.63;45.84;;
77361;Laerm;66427;51.798;10.954;2023-11-22T00:12:51;43.85;37.32;53.99;;
77361;Laerm;66427;51.798;10.954;2023-11-22T00:15:16;43.88;36.43;58.65;;
77361;Laerm;66427;51.798;10.954;2023-11-22T00:17:44;36.47;30.43;45.25;;
77361;Laerm;66427;51.798;10.954;2023-11-22T00:20:09;34.74;28.53;52.28;;
77361;Laerm;66427;51.798;10.954;2023-11-22T00:22:35;30.43;28.14;34.74;;
77361;Laerm;66427;51.798;10.954;2023-11-22T00:25:00;38.81;29.34;49.07;;
77361;Laerm;66427;51.798;10.954;2023-11-22T00:27:29;50.37;33.65;66.81;;
77361;Laerm;66427;51.798;10.954;2023-11-22T00:29:56;51.26;31.67;64.39;;
77361;Laerm;66427;51.798;10.954;2023-11-22T00:32:22;37.01;30.39;52.79;;
77361;Laerm;66427;51.798;10.954;2023-11-22T00:34:48;49.03;35.88;63.01;;
77361;Laerm;66427;51.798;10.954;2023-11-22T00:37:13;48.13;32.64;63.89;;
77361;Laerm;66427;51.798;10.954;2023-11-22T00:39:39;31.66;28.07;37.12;;
77361;Laerm;66427;51.798;10.954;2023-11-22T00:42:04;34.22;28.40;44.47;;
77361;Laerm;66427;51.798;10.954;2023-11-22T00:44:30;39.64;30.51;49.14;;
77361;Laerm;66427;51.798;10.954;2023-11-22T00:46:55;30.72;28.51;41.37;;
77361;Laerm;66427;51.798;10.954;2023-11-22T00:49:22;29.95;28.23;35.26;;
77361;Laerm;66427;51.798;10.954;2023-11-22T00:51:48;35.15;28.41;61.20;;
77361;Laerm;66427;51.798;10.954;2023-11-22T00:54:13;35.05;28.40;44.09;;
77361;Laerm;66427;51.798;10.954;2023-11-22T00:56:39;35.23;29.26;44.89;;
77361;Laerm;66427;51.798;10.954;2023-11-22T00:59:04;34.37;29.30;48.14;;
77361;Laerm;66427;51.798;10.954;2023-11-22T01:01:30;36.07;30.10;50.04;;
77361;Laerm;66427;51.798;10.954;2023-11-22T01:03:57;34.92;29.06;44.42;;
77361;Laerm;66427;51.798;10.954;2023-11-22T01:06:23;40.34;30.74;49.70;;
77361;Laerm;66427;51.798;10.954;2023-11-22T01:08:48;43.07;34.31;55.50;;
77361;Laerm;66427;51.798;10.954;2023-11-22T01:11:14;44.27;37.78;53.04;;
77361;Laerm;66427;51.798;10.954;2023-11-22T01:13:39;40.32;33.03;50.50;;
77361;Laerm;66427;51.798;10.954;2023-11-22T01:16:11;37.77;31.50;49.51;;
77361;Laerm;66427;51.798;10.954;2023-11-22T01:18:38;40.61;29.94;50.77;;
77361;Laerm;66427;51.798;10.954;2023-11-22T01:21:03;39.13;31.59;50.39;;
77361;Laerm;66427;51.798;10.954;2023-11-22T01:23:32;38.70;31.79;50.07;;
77361;Laerm;66427;51.798;10.954;2023-11-22T01:25:58;39.06;30.86;51.43;;
77361;Laerm;66427;51.798;10.954;2023-11-22T01:28:24;54.85;31.41;69.56;;
77361;Laerm;66427;51.798;10.954;2023-11-22T01:30:49;53.31;33.84;68.50;;
77361;Laerm;66427;51.798;10.954;2023-11-22T01:33:15;40.06;32.55;49.86;;
77361;Laerm;66427;51.798;10.954;2023-11-22T01:35:40;39.13;32.00;49.50;;
77361;Laerm;66427;51.798;10.954;2023-11-22T01:38:06;42.32;34.60;49.97;;
77361;Laerm;66427;51.798;10.954;2023-11-22T01:40:31;41.06;33.77;49.93;;
77361;Laerm;66427;51.798;10.954;2023-11-22T01:42:59;37.55;32.68;44.48;;
77361;Laerm;66427;51.798;10.954;2023-11-22T01:45:25;40.31;33.50;50.31;;
77361;Laerm;66427;51.798;10.954;2023-11-22T01:47:51;41.71;34.52;58.01;;
77361;Laerm;66427;51.798;10.954;2023-11-22T01:50:17;39.41;31.02;48.33;;
77361;Laerm;66427;51.798;10.954;2023-11-22T01:52:42;42.25;34.06;51.49;;
77361;Laerm;66427;51.798;10.954;2023-11-22T01:55:08;40.92;34.25;49.59;;
77361;Laerm;66427;51.798;10.954;2023-11-22T01:57:34;43.43;34.26;54.01;;
77361;Laerm;66427;51.798;10.954;2023-11-22T02:00:00;41.03;30.78;49.80;;
77361;Laerm;66427;51.798;10.954;2023-11-22T02:02:26;39.66;31.05;50.41;;
77361;Laerm;66427;51.798;10.954;2023-11-22T02:04:51;43.63;35.58;52.32;;
77361;Laerm;66427;51.798;10.954;2023-11-22T02:07:17;37.83;29.75;47.75;;
77361;Laerm;66427;51.798;10.954;2023-11-22T02:09:42;33.54;29.30;41.65;;
77361;Laerm;66427;51.798;10.954;2023-11-22T02:12:08;39.84;32.93;47.63;;
77361;Laerm;66427;51.798;10.954;2023-11-22T02:14:33;36.70;31.19;46.00;;
77361;Laerm;66427;51.798;10.954;2023-11-22T02:16:59;43.97;36.47;53.49;;
77361;Laerm;66427;51.798;10.954;2023-11-22T02:19:25;45.90;37.74;58.30;;
77361;Laerm;66427;51.798;10.954;2023-11-22T02:21:51;41.19;32.21;50.27;;
77361;Laerm;66427;51.798;10.954;2023-11-22T02:24:17;44.16;35.38;52.49;;
77361;Laerm;66427;51.798;10.954;2023-11-22T02:26:43;42.81;35.87;51.31;;
77361;Laerm;66427;51.798;10.954;2023-11-22T02:29:09;42.01;34.36;50.69;;
77361;Laerm;66427;51.798;10.954;2023-11-22T02:31:34;43.98;31.77;62.37;;
77361;Laerm;66427;51.798;10.954;2023-11-22T02:33:59;38.83;33.62;46.64;;
77361;Laerm;66427;51.798;10.954;2023-11-22T02:36:25;43.10;35.36;53.94;;
77361;Laerm;66427;51.798;10.954;2023-11-22T02:38:51;41.07;33.90;50.10;;
77361;Laerm;66427;51.798;10.954;2023-11-22T02:41:17;41.03;32.78;49.88;;
77361;Laerm;66427;51.798;10.954;2023-11-22T02:43:42;41.49;35.15;51.47;;
77361;Laerm;66427;51.798;10.954;2023-11-22T02:46:08;42.10;36.65;48.27;;
77361;Laerm;66427;51.798;10.954;2023-11-22T02:48:33;40.87;35.07;47.92;;
77361;Laerm;66427;51.798;10.954;2023-11-22T02:50:59;40.25;34.79;46.53;;
77361;Laerm;66427;51.798;10.954;2023-11-22T02:53:25;42.74;33.41;54.99;;
77361;Laerm;66427;51.798;10.954;2023-11-22T02:55:50;44.46;34.17;53.17;;
77361;Laerm;66427;51.798;10.954;2023-11-22T02:58:15;43.69;34.54;54.20;;
77361;Laerm;66427;51.798;10.954;2023-11-22T03:00:42;43.66;34.59;52.28;;
77361;Laerm;66427;51.798;10.954;2023-11-22T03:03:07;42.37;34.20;51.52;;
77361;Laerm;66427;51.798;10.954;2023-11-22T03:05:35;39.56;32.33;49.65;;
77361;Laerm;66427;51.798;10.954;2023-11-22T03:08:02;43.01;33.44;53.24;;
77361;Laerm;66427;51.798;10.954;2023-11-22T03:10:28;44.70;37.02;54.16;;
77361;Laerm;66427;51.798;10.954;2023-11-22T03:12:55;43.33;36.42;56.45;;
77361;Laerm;66427;51.798;10.954;2023-11-22T03:15:20;43.79;37.92;51.55;;
77361;Laerm;66427;51.798;10.954;2023-11-22T03:17:45;43.57;36.76;52.05;;
77361;Laerm;66427;51.798;10.954;2023-11-22T03:20:11;41.66;32.85;57.22;;
77361;Laerm;66427;51.798;10.954;2023-11-22T03:22:37;46.39;40.78;53.41;;
77361;Laerm;66427;51.798;10.954;2023-11-22T03:25:03;44.02;37.05;52.81;;
77361;Laerm;66427;51.798;10.954;2023-11-22T03:27:29;42.58;36.11;51.23;;
77361;Laerm;66427;51.798;10.954;2023-11-22T03:29:54;43.45;38.99;48.59;;
77361;Laerm;66427;51.798;10.954;2023-11-22T03:32:20;42.60;36.80;56.73;;
77361;Laerm;66427;51.798;10.954;2023-11-22T03:34:45;46.08;39.05;54.24;;
77361;Laerm;66427;51.798;10.954;2023-11-22T03:37:10;46.55;41.14;54.14;;
77361;Laerm;66427;51.798;10.954;2023-11-22T03:39:36;49.25;39.90;69.97;;
77361;Laerm;66427;51.798;10.954;2023-11-22T03:42:01;46.54;38.23;56.12;;
77361;Laerm;66427;51.798;10.954;2023-11-22T03:44:27;45.98;39.39;56.37;;
77361;Laerm;66427;51.798;10.954;2023-11-22T03:46:53;47.93;41.90;56.97;;
77361;Laerm;66427;51.798;10.954;2023-11-22T03:49:18;47.76;41.14;58.15;;
77361;Laerm;66427;51.798;10.954;2023-11-22T03:51:44;46.16;41.21;58.41;;
77361;Laerm;66427;51.798;10.954;2023-11-22T03:54:09;48.62;41.77;58.27;;
77361;Laerm;66427;51.798;10.954;2023-11-22T03:56:36;47.99;41.85;55.08;;
77361;Laerm;66427;51.798;10.954;2023-11-22T03:59:01;48.93;43.04;65.07;;
77361;Laerm;66427;51.798;10.954;2023-11-22T04:01:28;45.63;39.80;51.25;;
77361;Laerm;66427;51.798;10.954;2023-11-22T04:03:54;45.83;37.54;52.94;;
77361;Laerm;66427;51.798;10.954;2023-11-22T04:06:19;43.92;39.39;52.48;;
77361;Laerm;66427;51.798;10.954;2023-11-22T04:08:45;40.72;34.87;50.06;;
77361;Laerm;66427;51.798;10.954;2023-11-22T04:11:11;48.27;41.80;57.58;;
77361;Laerm;66427;51.798;10.954;2023-11-22T04:13:37;45.21;40.41;52.78;;
77361;Laerm;66427;51.798;10.954;2023-11-22T04:16:03;47.88;40.85;55.47;;
77361;Laerm;66427;51.798;10.954;2023-11-22T04:18:28;49.84;40.48;63.83;;
77361;Laerm;66427;51.798;10.954;2023-11-22T04:20:54;46.50;41.10;52.45;;
77361;Laerm;66427;51.798;10.954;2023-11-22T04:23:20;45.13;40.51;51.89;;
77361;Laerm;66427;51.798;10.954;2023-11-22T04:25:46;46.45;42.13;53.69;;
77361;Laerm;66427;51.798;10.954;2023-11-22T04:28:14;52.09;41.89;64.47;;
77361;Laerm;66427;51.798;10.954;2023-11-22T04:30:40;47.26;43.79;53.81;;
77361;Laerm;66427;51.798;10.954;2023-11-22T04:33:05;47.13;40.87;55.30;;
77361;Laerm;66427;51.798;10.954;2023-11-22T04:35:31;45.44;41.21;52.39;;
77361;Laerm;66427;51.798;10.954;2023-11-22T04:38:01;45.23;40.37;52.92;;
77361;Laerm;66427;51.798;10.954;2023-11-22T04:40:26;48.17;42.22;59.93;;
77361;Laerm;66427;51.798;10.954;2023-11-22T04:42:52;48.28;40.77;62.56;;
77361;Laerm;66427;51.798;10.954;2023-11-22T04:45:17;48.88;41.04;60.43;;
77361;Laerm;66427;51.798;10.954;2023-11-22T04:47:43;50.28;39.55;66.16;;
77361;Laerm;66427;51.798;10.954;2023-11-22T04:50:08;53.22;40.72;67.13;;
77361;Laerm;66427;51.798;10.954;2023-11-22T04:52:35;55.93;40.91;70.18;;
77361;Laerm;66427;51.798;10.954;2023-11-22T04:55:00;51.77;41.81;61.91;;
77361;Laerm;66427;51.798;10.954;2023-11-22T04:57:26;46.85;41.48;60.60;;
77361;Laerm;66427;51.798;10.954;2023-11-22T04:59:51;48.63;41.87;60.57;;
77361;Laerm;66427;51.798;10.954;2023-11-22T05:02:18;44.35;39.07;50.74;;
77361;Laerm;66427;51.798;10.954;2023-11-22T05:04:43;46.34;42.51;53.80;;
77361;Laerm;66427;51.798;10.954;2023-11-22T05:07:12;57.52;42.65;71.87;;
77361;Laerm;66427;51.798;10.954;2023-11-22T05:09:38;47.49;43.21;56.92;;
77361;Laerm;66427;51.798;10.954;2023-11-22T05:12:03;52.27;41.39;67.87;;
77361;Laerm;66427;51.798;10.954;2023-11-22T05:14:29;49.41;41.14;69.89;;
77361;Laerm;66427;51.798;10.954;2023-11-22T05:16:54;54.04;41.09;70.34;;
77361;Laerm;66427;51.798;10.954;2023-11-22T05:19:22;51.05;41.37;75.05;;
77361;Laerm;66427;51.798;10.954;2023-11-22T05:21:47;50.36;41.97;63.78;;
77361;Laerm;66427;51.798;10.954;2023-11-22T05:24:13;46.11;41.15;52.24;;
77361;Laerm;66427;51.798;10.954;2023-11-22T05:26:40;49.82;41.50;65.29;;
77361;Laerm;66427;51.798;10.954;2023-11-22T05:29:05;55.48;41.64;71.02;;
77361;Laerm;66427;51.798;10.954;2023-11-22T05:31:31;53.62;43.46;67.47;;
77361;Laerm;66427;51.798;10.954;2023-11-22T05:33:56;60.07;45.78;77.40;;
77361;Laerm;66427;51.798;10.954;2023-11-22T05:36:22;55.69;46.67;71.19;;
77361;Laerm;66427;51.798;10.954;2023-11-22T05:38:47;47.75;43.40;57.93;;
77361;Laerm;66427;51.798;10.954;2023-11-22T05:41:13;58.90;45.52;72.21;;
77361;Laerm;66427;51.798;10.954;2023-11-22T05:43:38;53.36;42.29;66.58;;
77361;Laerm;66427;51.798;10.954;2023-11-22T05:46:04;52.30;43.43;65.32;;
77361;Laerm;66427;51.798;10.954;2023-11-22T05:48:30;56.14;46.54;69.06;;
77361;Laerm;66427;51.798;10.954;2023-11-22T05:50:55;54.47;45.08;68.77;;
77361;Laerm;66427;51.798;10.954;2023-11-22T05:53:21;57.92;45.34;71.37;;
77361;Laerm;66427;51.798;10.954;2023-11-22T05:55:49;53.27;45.25;66.01;;
77361;Laerm;66427;51.798;10.954;2023-11-22T05:58:15;54.04;45.36;65.04;;
77361;Laerm;66427;51.798;10.954;2023-11-22T06:00:44;60.42;45.00;75.54;;
77361;Laerm;66427;51.798;10.954;2023-11-22T06:03:10;55.46;41.54;69.30;;
77361;Laerm;66427;51.798;10.954;2023-11-22T06:05:36;47.88;43.56;58.97;;
77361;Laerm;66427;51.798;10.954;2023-11-22T06:08:01;56.87;42.76;67.18;;
77361;Laerm;66427;51.798;10.954;2023-11-22T06:10:26;54.23;42.97;67.55;;
77361;Laerm;66427;51.798;10.954;2023-11-22T06:12:52;54.18;44.16;67.79;;
77361;Laerm;66427;51.798;10.954;2023-11-22T06:15:17;51.18;44.00;63.66;;
77361;Laerm;66427;51.798;10.954;2023-11-22T06:17:46;53.41;45.16;67.21;;
77361;Laerm;66427;51.798;10.954;2023-11-22T06:20:12;56.10;43.94;69.60;;
77361;Laerm;66427;51.798;10.954;2023-11-22T06:22:37;56.86;45.47;71.10;;
77361;Laerm;66427;51.798;10.954;2023-11-22T06:25:08;59.83;44.30;76.11;;
77361;Laerm;66427;51.798;10.954;2023-11-22T06:27:33;60.23;47.22;79.59;;
77361;Laerm;66427;51.798;10.954;2023-11-22T06:29:58;55.94;42.97;68.43;;
77361;Laerm;66427;51.798;10.954;2023-11-22T06:32:24;57.10;43.33;73.07;;
77361;Laerm;66427;51.798;10.954;2023-11-22T06:34:49;58.62;45.36;71.00;;
77361;Laerm;66427;51.798;10.954;2023-11-22T06:37:16;59.53;45.34;70.13;;
77361;Laerm;66427;51.798;10.954;2023-11-22T06:39:42;53.37;43.33;67.55;;
77361;Laerm;66427;51.798;10.954;2023-11-22T06:42:07;56.55;44.24;70.97;;
77361;Laerm;66427;51.798;10.954;2023-11-22T06:44:33;55.97;43.77;68.23;;
77361;Laerm;66427;51.798;10.954;2023-11-22T06:46:59;59.80;44.29;77.31;;
77361;Laerm;66427;51.798;10.954;2023-11-22T06:49:25;56.67;42.62;72.16;;
77361;Laerm;66427;51.798;10.954;2023-11-22T06:51:50;53.52;42.89;66.17;;
77361;Laerm;66427;51.798;10.954;2023-11-22T06:54:18;52.76;42.03;66.55;;
77361;Laerm;66427;51.798;10.954;2023-11-22T06:56:43;56.20;44.38;65.74;;
77361;Laerm;66427;51.798;10.954;2023-11-22T06:59:11;54.65;43.39;65.76;;
77361;Laerm;66427;51.798;10.954;2023-11-22T07:01:36;57.22;44.50;69.20;;
77361;Laerm;66427;51.798;10.954;2023-11-22T07:04:01;52.02;41.88;66.53;;
77361;Laerm;66427;51.798;10.954;2023-11-22T07:06:29;54.96;40.31;76.18;;
77361;Laerm;66427;51.798;10.954;2023-11-22T07:08:54;59.73;44.52;69.78;;
77361;Laerm;66427;51.798;10.954;2023-11-22T07:11:23;68.90;39.53;96.35;;
77361;Laerm;66427;51.798;10.954;2023-11-22T07:13:49;50.03;39.76;69.49;;
77361;Laerm;66427;51.798;10.954;2023-11-22T07:16:14;59.44;38.88;82.54;;
77361;Laerm;66427;51.798;10.954;2023-11-22T07:18:40;55.04;42.36;65.71;;
77361;Laerm;66427;51.798;10.954;2023-11-22T07:21:05;51.25;42.35;61.46;;
77361;Laerm;66427;51.798;10.954;2023-11-22T07:23:31;59.42;41.61;72.49;;
77361;Laerm;66427;51.798;10.954;2023-11-22T07:25:56;54.21;44.01;70.19;;
77361;Laerm;66427;51.798;10.954;2023-11-22T07:28:22;57.12;42.87;70.46;;
77361;Laerm;66427;51.798;10.954;2023-11-22T07:30:47;54.36;40.13;65.95;;
77361;Laerm;66427;51.798;10.954;2023-11-22T07:33:14;56.95;41.47;72.15;;
77361;Laerm;66427;51.798;10.954;2023-11-22T07:35:40;55.27;41.32;66.61;;
77361;Laerm;66427;51.798;10.954;2023-11-22T07:38:06;51.86;42.33;64.63;;
77361;Laerm;66427;51.798;10.954;2023-11-22T07:40:34;65.95;41.20;81.36;;
77361;Laerm;66427;51.798;10.954;2023-11-22T07:42:59;66.95;42.71;82.15;;
77361;Laerm;66427;51.798;10.954;2023-11-22T07:45:27;56.29;41.00;67.27;;
77361;Laerm;66427;51.798;10.954;2023-11-22T07:47:53;55.03;39.10;69.43;;
77361;Laerm;66427;51.798;10.954;2023-11-22T07:50:18;53.87;38.80;65.75;;
77361;Laerm;66427;51.798;10.954;2023-11-22T07:52:45;54.01;38.13;69.89;;
77361;Laerm;66427;51.798;10.954;2023-11-22T07:55:10;61.13;41.71;77.84;;
77361;Laerm;66427;51.798;10.954;2023-11-22T07:57:37;50.20;37.94;66.98;;
77361;Laerm;66427;51.798;10.954;2023-11-22T08:00:04;57.31;40.91;66.87;;
77361;Laerm;66427;51.798;10.954;2023-11-22T08:02:33;58.45;40.98;71.49;;
77361;Laerm;66427;51.798;10.954;2023-11-22T08:04:58;48.31;42.15;61.90;;
77361;Laerm;66427;51.798;10.954;2023-11-22T08:07:27;54.13;39.28;68.24;;
77361;Laerm;66427;51.798;10.954;2023-11-22T08:09:53;60.08;37.77;77.19;;
77361;Laerm;66427;51.798;10.954;2023-11-22T08:12:18;57.95;38.06;71.06;;
77361;Laerm;66427;51.798;10.954;2023-11-22T08:14:44;66.39;54.99;71.07;;
77361;Laerm;66427;51.798;10.954;2023-11-22T08:17:09;67.55;50.08;81.25;;
77361;Laerm;66427;51.798;10.954;2023-11-22T08:19:37;58.52;40.48;75.27;;
77361;Laerm;66427;51.798;10.954;2023-11-22T08:22:04;59.07;39.95;75.80;;
77361;Laerm;66427;51.798;10.954;2023-11-22T08:24:30;50.58;37.71;63.99;;
77361;Laerm;66427;51.798;10.954;2023-11-22T08:26:55;45.96;39.82;59.26;;
77361;Laerm;66427;51.798;10.954;2023-11-22T08:29:21;54.38;38.66;64.76;;
77361;Laerm;66427;51.798;10.954;2023-11-22T08:31:47;59.95;39.87;73.75;;
77361;Laerm;66427;51.798;10.954;2023-11-22T08:34:16;56.61;39.14;71.34;;
77361;Laerm;66427;51.798;10.954;2023-11-22T08:36:42;50.04;38.58;65.64;;
77361;Laerm;66427;51.798;10.954;2023-11-22T08:39:07;61.27;40.26;80.00;;
77361;Laerm;66427;51.798;10.954;2023-11-22T08:41:33;63.22;38.08;80.41;;
77361;Laerm;66427;51.798;10.954;2023-11-22T08:43:58;50.69;40.95;63.65;;
77361;Laerm;66427;51.798;10.954;2023-11-22T08:46:25;53.95;40.30;69.51;;
77361;Laerm;66427;51.798;10.954;2023-11-22T08:48:51;53.25;40.58;67.06;;
77361;Laerm;66427;51.798;10.954;2023-11-22T08:51:16;63.57;41.65;80.55;;
77361;Laerm;66427;51.798;10.954;2023-11-22T08:53:42;55.74;39.49;67.77;;
77361;Laerm;66427;51.798;10.954;2023-11-22T08:56:09;55.55;37.65;68.56;;
77361;Laerm;66427;51.798;10.954;2023-11-22T08:58:36;54.12;39.71;67.25;;
77361;Laerm;66427;51.798;10.954;2023-11-22T09:01:02;56.83;38.03;69.19;;
77361;Laerm;66427;51.798;10.954;2023-11-22T09:03:29;57.89;40.59;70.15;;
77361;Laerm;66427;51.798;10.954;2023-11-22T09:05:54;51.90;39.43;65.92;;
77361;Laerm;66427;51.798;10.954;2023-11-22T09:08:20;65.17;37.06;91.83;;
77361;Laerm;66427;51.798;10.954;2023-11-22T09:10:46;61.48;38.13;81.74;;
77361;Laerm;66427;51.798;10.954;2023-11-22T09:13:11;52.90;39.18;67.80;;
77361;Laerm;66427;51.798;10.954;2023-11-22T09:15:40;49.84;36.77;64.69;;
77361;Laerm;66427;51.798;10.954;2023-11-22T09:18:07;52.74;37.38;64.98;;
77361;Laerm;66427;51.798;10.954;2023-11-22T09:20:33;56.61;38.35;75.43;;
77361;Laerm;66427;51.798;10.954;2023-11-22T09:22:58;52.89;37.63;63.68;;
77361;Laerm;66427;51.798;10.954;2023-11-22T09:25:25;56.48;40.19;67.21;;
77361;Laerm;66427;51.798;10.954;2023-11-22T09:27:51;54.02;36.47;75.13;;
77361;Laerm;66427;51.798;10.954;2023-11-22T09:30:21;53.83;38.02;66.42;;
77361;Laerm;66427;51.798;10.954;2023-11-22T09:33:10;62.70;37.97;79.54;;
77361;Laerm;66427;51.798;10.954;2023-11-22T09:35:38;50.25;35.61;66.62;;
77361;Laerm;66427;51.798;10.954;2023-11-22T09:38:07;59.21;37.21;69.40;;
77361;Laerm;66427;51.798;10.954;2023-11-22T09:43:06;54.37;35.91;70.24;;
77361;Laerm;66427;51.798;10.954;2023-11-22T09:45:31;54.79;36.62;67.58;;
77361;Laerm;66427;51.798;10.954;2023-11-22T09:47:57;53.30;35.78;67.42;;
77361;Laerm;66427;51.798;10.954;2023-11-22T09:50:25;54.54;35.74;67.06;;
77361;Laerm;66427;51.798;10.954;2023-11-22T09:52:52;49.92;35.46;62.33;;
77361;Laerm;66427;51.798;10.954;2023-11-22T09:55:24;55.74;35.81;68.66;;
77361;Laerm;66427;51.798;10.954;2023-11-22T09:57:51;59.45;36.65;72.68;;
77361;Laerm;66427;51.798;10.954;2023-11-22T10:00:17;52.24;35.77;69.15;;
77361;Laerm;66427;51.798;10.954;2023-11-22T10:02:44;58.23;37.30;69.30;;
77361;Laerm;66427;51.798;10.954;2023-11-22T10:05:10;55.47;36.94;66.75;;
77361;Laerm;66427;51.798;10.954;2023-11-22T10:07:36;50.30;35.17;66.38;;
77361;Laerm;66427;51.798;10.954;2023-11-22T10:10:03;56.38;34.14;69.21;;
77361;Laerm;66427;51.798;10.954;2023-11-22T10:12:30;50.52;34.12;66.24;;
77361;Laerm;66427;51.798;10.954;2023-11-22T10:15:09;54.40;35.29;66.86;;
77361;Laerm;66427;51.798;10.954;2023-11-22T10:17:35;54.27;37.22;65.51;;
77361;Laerm;66427;51.798;10.954;2023-11-22T10:20:01;54.61;36.35;67.33;;
77361;Laerm;66427;51.798;10.954;2023-11-22T10:22:27;51.08;35.66;64.83;;
77361;Laerm;66427;51.798;10.954;2023-11-22T10:24:52;60.83;41.38;78.63;;
77361;Laerm;66427;51.798;10.954;2023-11-22T10:27:20;55.38;39.22;66.75;;
77361;Laerm;66427;51.798;10.954;2023-11-22T10:29:45;45.25;34.89;58.22;;
77361;Laerm;66427;51.798;10.954;2023-11-22T10:32:13;52.03;33.29;67.67;;
77361;Laerm;66427;51.798;10.954;2023-11-22T10:34:39;52.27;34.67;65.77;;
77361;Laerm;66427;51.798;10.954;2023-11-22T10:37:04;61.51;41.32;78.25;;
77361;Laerm;66427;51.798;10.954;2023-11-22T10:39:30;71.03;41.02;87.09;;
77361;Laerm;66427;51.798;10.954;2023-11-22T10:41:55;57.66;37.55;69.82;;
77361;Laerm;66427;51.798;10.954;2023-11-22T10:44:22;61.76;37.27;87.73;;
77361;Laerm;66427;51.798;10.954;2023-11-22T10:46:48;56.46;37.38;69.84;;
77361;Laerm;66427;51.798;10.954;2023-11-22T10:49:14;59.06;37.48;76.55;;
77361;Laerm;66427;51.798;10.954;2023-11-22T10:51:39;54.72;36.50;69.24;;
77361;Laerm;66427;51.798;10.954;2023-11-22T10:54:06;59.15;38.06;74.62;;
77361;Laerm;66427;51.798;10.954;2023-11-22T10:56:42;53.87;35.08;65.95;;
77361;Laerm;66427;51.798;10.954;2023-11-22T10:59:14;57.05;37.24;69.55;;
77361;Laerm;66427;51.798;10.954;2023-11-22T11:01:44;56.00;38.64;72.62;;
77361;Laerm;66427;51.798;10.954;2023-11-22T11:04:23;54.96;35.53;72.24;;
77361;Laerm;66427;51.798;10.954;2023-11-22T11:06:51;52.58;37.45;63.98;;
77361;Laerm;66427;51.798;10.954;2023-11-22T11:09:16;58.32;38.45;71.78;;
77361;Laerm;66427;51.798;10.954;2023-11-22T11:11:46;55.60;39.20;67.85;;
77361;Laerm;66427;51.798;10.954;2023-11-22T11:14:12;53.96;35.70;69.03;;
77361;Laerm;66427;51.798;10.954;2023-11-22T11:16:39;47.16;36.42;61.97;;
77361;Laerm;66427;51.798;10.954;2023-11-22T11:19:12;55.95;37.09;69.02;;
77361;Laerm;66427;51.798;10.954;2023-11-22T11:21:39;50.02;39.62;65.14;;
77361;Laerm;66427;51.798;10.954;2023-11-22T11:24:04;55.22;39.85;67.06;;
77361;Laerm;66427;51.798;10.954;2023-11-22T11:26:34;55.92;39.16;69.84;;
77361;Laerm;66427;51.798;10.954;2023-11-22T11:29:02;51.28;36.37;66.90;;
77361;Laerm;66427;51.798;10.954;2023-11-22T11:31:32;46.11;34.20;61.19;;
77361;Laerm;66427;51.798;10.954;2023-11-22T11:34:02;52.88;39.74;65.46;;
77361;Laerm;66427;51.798;10.954;2023-11-22T11:36:30;65.39;44.98;81.28;;
77361;Laerm;66427;51.798;10.954;2023-11-22T11:38:58;56.43;35.20;68.39;;
77361;Laerm;66427;51.798;10.954;2023-11-22T11:41:28;44.76;35.42;64.46;;
77361;Laerm;66427;51.798;10.954;2023-11-22T11:43:55;48.43;36.15;61.48;;
77361;Laerm;66427;51.798;10.954;2023-11-22T11:46:21;54.02;36.27;67.54;;
77361;Laerm;66427;51.798;10.954;2023-11-22T11:48:48;55.18;37.39;68.59;;
77361;Laerm;66427;51.798;10.954;2023-11-22T11:51:14;58.34;36.77;70.55;;
77361;Laerm;66427;51.798;10.954;2023-11-22T11:53:40;56.63;37.28;70.18;;
77361;Laerm;66427;51.798;10.954;2023-11-22T11:56:06;54.32;35.18;66.67;;
77361;Laerm;66427;51.798;10.954;2023-11-22T11:58:32;48.31;35.80;62.66;;
77361;Laerm;66427;51.798;10.954;2023-11-22T12:00:57;58.66;40.48;71.39;;
77361;Laerm;66427;51.798;10.954;2023-11-22T12:03:24;57.51;36.89;67.96;;
77361;Laerm;66427;51.798;10.954;2023-11-22T12:05:49;62.39;38.69;78.45;;
77361;Laerm;66427;51.798;10.954;2023-11-22T12:08:15;60.69;43.38;75.82;;
77361;Laerm;66427;51.798;10.954;2023-11-22T12:10:41;58.66;38.29;74.61;;
77361;Laerm;66427;51.798;10.954;2023-11-22T12:13:06;64.88;43.39;85.65;;
77361;Laerm;66427;51.798;10.954;2023-11-22T12:15:33;56.32;39.07;68.84;;
77361;Laerm;66427;51.798;10.954;2023-11-22T12:17:59;56.03;38.08;69.31;;
77361;Laerm;66427;51.798;10.954;2023-11-22T12:20:26;54.39;38.27;66.48;;
77361;Laerm;66427;51.798;10.954;2023-11-22T12:22:57;60.18;38.30;74.65;;
77361;Laerm;66427;51.798;10.954;2023-11-22T12:25:22;63.77;40.72;81.53;;
77361;Laerm;66427;51.798;10.954;2023-11-22T12:27:48;52.57;39.10;62.94;;
77361;Laerm;66427;51.798;10.954;2023-11-22T12:30:30;53.92;40.12;66.77;;
77361;Laerm;66427;51.798;10.954;2023-11-22T12:32:57;55.59;38.57;70.91;;
77361;Laerm;66427;51.798;10.954;2023-11-22T12:35:22;43.63;36.22;58.61;;
77361;Laerm;66427;51.798;10.954;2023-11-22T12:37:48;59.24;37.65;76.25;;
77361;Laerm;66427;51.798;10.954;2023-11-22T12:40:14;49.37;37.41;63.47;;
77361;Laerm;66427;51.798;10.954;2023-11-22T12:42:51;56.21;35.95;71.87;;
77361;Laerm;66427;51.798;10.954;2023-11-22T12:45:24;55.62;36.51;69.50;;
77361;Laerm;66427;51.798;10.954;2023-11-22T12:47:50;58.53;38.22;70.06;;
77361;Laerm;66427;51.798;10.954;2023-11-22T12:50:36;55.67;37.18;72.13;;
77361;Laerm;66427;51.798;10.954;2023-11-22T12:53:22;63.93;37.00;80.41;;
77361;Laerm;66427;51.798;10.954;2023-11-22T12:55:49;53.75;35.27;66.99;;
77361;Laerm;66427;51.798;10.954;2023-11-22T12:58:15;57.15;36.85;69.10;;
77361;Laerm;66427;51.798;10.954;2023-11-22T13:00:41;65.04;37.86;80.93;;
77361;Laerm;66427;51.798;10.954;2023-11-22T13:03:07;54.63;38.83;69.75;;
77361;Laerm;66427;51.798;10.954;2023-11-22T13:05:33;50.78;38.65;64.93;;
77361;Laerm;66427;51.798;10.954;2023-11-22T13:07:58;57.37;40.03;67.26;;
77361;Laerm;66427;51.798;10.954;2023-11-22T13:10:24;53.29;37.86;66.76;;
77361;Laerm;66427;51.798;10.954;2023-11-22T13:12:53;52.90;41.58;68.10;;
77361;Laerm;66427;51.798;10.954;2023-11-22T13:15:19;53.22;41.96;66.54;;
77361;Laerm;66427;51.798;10.954;2023-11-22T13:17:46;55.30;35.94;74.13;;
77361;Laerm;66427;51.798;10.954;2023-11-22T13:20:11;53.70;36.56;65.48;;
77361;Laerm;66427;51.798;10.954;2023-11-22T13:22:40;58.13;36.98;70.92;;
77361;Laerm;66427;51.798;10.954;2023-11-22T13:25:07;53.36;39.72;65.75;;
77361;Laerm;66427;51.798;10.954;2023-11-22T13:27:33;54.75;37.68;68.31;;
77361;Laerm;66427;51.798;10.954;2023-11-22T13:29:58;57.91;36.94;72.71;;